createdAt,value
2023-02-26T00:00:53.598Z,18.58
2023-02-26T00:03:40.505Z,18.63
2023-02-26T00:06:14.612Z,16.90
2023-02-26T00:09:01.515Z,17.08
2023-02-26T00:11:42.518Z,18.00
2023-02-26T00:14:36.515Z,18.15
2023-02-26T00:17:34.501Z,16.83
2023-02-26T00:20:08.961Z,19.17
2023-02-26T00:22:55.493Z,20.63
2023-02-26T00:25:35.518Z,20.23
2023-02-26T00:28:22.560Z,19.27
2023-02-26T00:30:55.645Z,19.50
2023-02-26T00:33:42.520Z,18.85
2023-02-26T00:36:28.006Z,19.13
2023-02-26T00:39:41.533Z,19.73
2023-02-26T00:42:22.515Z,18.48
2023-02-26T00:45:10.545Z,18.17
2023-02-26T00:47:58.628Z,19.92
2023-02-26T00:50:53.537Z,18.55
2023-02-26T00:53:56.524Z,19.35
2023-02-26T00:56:50.546Z,19.58
2023-02-26T00:59:37.522Z,19.05
2023-02-26T01:02:17.527Z,20.25
2023-02-26T01:05:04.544Z,18.77
2023-02-26T01:07:53.537Z,19.67
2023-02-26T01:10:47.555Z,20.75
2023-02-26T01:13:41.534Z,21.35
2023-02-26T01:16:33.554Z,23.83
2023-02-26T01:19:15.283Z,20.50
2023-02-26T01:22:08.514Z,20.33
2023-02-26T01:24:42.628Z,20.80
2023-02-26T01:27:29.531Z,17.73
2023-02-26T01:30:09.556Z,19.20
2023-02-26T01:33:05.545Z,21.90
2023-02-26T01:35:50.655Z,19.90
2023-02-26T01:38:38.538Z,20.48
2023-02-26T01:41:42.581Z,20.58
2023-02-26T01:45:06.542Z,22.85
2023-02-26T01:48:15.536Z,16.98
2023-02-26T01:51:09.560Z,18.95
2023-02-26T01:53:56.530Z,18.25
2023-02-26T01:56:29.644Z,18.05
2023-02-26T01:59:21.571Z,16.77
2023-02-26T02:02:01.560Z,15.85
2023-02-26T02:04:56.542Z,17.00
2023-02-26T02:07:43.539Z,16.80
2023-02-26T02:10:17.674Z,16.52
2023-02-26T02:13:10.561Z,16.42
2023-02-26T02:15:52.666Z,14.70
2023-02-26T02:19:07.554Z,14.20
2023-02-26T02:22:04.680Z,13.18
2023-02-26T02:25:43.561Z,13.63
2023-02-26T02:28:55.555Z,15.65
2023-02-26T02:31:33.772Z,15.77
2023-02-26T02:34:30.582Z,16.00
2023-02-26T02:37:12.641Z,14.45
2023-02-26T02:40:11.602Z,14.93
2023-02-26T02:43:03.580Z,15.95
2023-02-26T02:45:56.581Z,15.68
2023-02-26T02:48:37.734Z,15.85
2023-02-26T02:51:29.595Z,16.17
2023-02-26T02:54:26.583Z,16.20
2023-02-26T02:57:39.575Z,16.30
2023-02-26T03:00:35.567Z,14.93
2023-02-26T03:03:38.581Z,14.75
2023-02-26T03:06:11.695Z,14.27
2023-02-26T03:08:59.581Z,16.13
2023-02-26T03:11:33.666Z,15.73
2023-02-26T03:14:21.578Z,15.93
2023-02-26T03:17:15.718Z,15.38
2023-02-26T03:20:21.614Z,17.42
2023-02-26T03:23:03.689Z,16.55
2023-02-26T03:26:04.576Z,16.20
2023-02-26T03:29:12.589Z,16.65
2023-02-26T03:32:05.716Z,15.95
2023-02-26T03:34:54.593Z,16.60
2023-02-26T03:37:55.586Z,15.35
2023-02-26T03:40:41.616Z,17.02
2023-02-26T03:43:34.598Z,17.45
2023-02-26T03:46:12.733Z,17.98
2023-02-26T03:49:01.620Z,17.67
2023-02-26T03:51:36.702Z,16.92
2023-02-26T03:54:29.638Z,19.25
2023-02-26T03:57:09.586Z,17.60
2023-02-26T04:00:03.633Z,17.27
2023-02-26T04:03:22.596Z,16.92
2023-02-26T04:06:05.604Z,18.25
2023-02-26T04:09:00.589Z,17.50
2023-02-26T04:11:54.630Z,15.50
2023-02-26T04:14:41.631Z,15.90
2023-02-26T04:17:22.727Z,16.85
2023-02-26T04:20:14.610Z,17.15
2023-02-26T04:22:47.706Z,16.50
2023-02-26T04:25:34.608Z,17.40
2023-02-26T04:28:07.766Z,17.00
2023-02-26T04:30:54.700Z,23.65
2023-02-26T04:33:27.700Z,19.67
2023-02-26T04:36:15.594Z,17.88
2023-02-26T04:38:48.920Z,18.08
2023-02-26T04:41:35.603Z,17.48
2023-02-26T04:44:15.597Z,16.38
2023-02-26T04:47:02.612Z,17.88
2023-02-26T04:49:42.606Z,17.17
2023-02-26T04:52:36.607Z,17.85
2023-02-26T04:55:30.604Z,19.80
2023-02-26T04:58:24.618Z,18.40
2023-02-26T05:01:20.654Z,18.02
2023-02-26T05:04:14.655Z,16.73
2023-02-26T05:07:08.619Z,17.23
2023-02-26T05:09:55.604Z,17.40
2023-02-26T05:12:28.757Z,17.95
2023-02-26T05:15:15.619Z,17.08
2023-02-26T05:17:55.628Z,17.20
2023-02-26T05:20:49.631Z,19.55
2023-02-26T05:23:36.620Z,17.63
2023-02-26T05:26:09.745Z,17.90
2023-02-26T05:28:56.606Z,15.98
2023-02-26T05:31:29.982Z,16.70
2023-02-26T05:34:16.633Z,16.90
2023-02-26T05:36:49.743Z,16.88
2023-02-26T05:39:36.592Z,18.17
2023-02-26T05:42:09.763Z,17.27
2023-02-26T05:44:56.684Z,17.40
2023-02-26T05:47:37.632Z,18.30
2023-02-26T05:50:31.646Z,16.70
2023-02-26T05:53:25.626Z,15.55
2023-02-26T05:56:19.659Z,17.63
2023-02-26T05:59:06.626Z,16.45
2023-02-26T06:01:39.779Z,17.10
2023-02-26T06:04:26.649Z,16.75
2023-02-26T06:06:59.751Z,16.25
2023-02-26T06:09:46.692Z,15.05
2023-02-26T06:12:26.656Z,16.08
2023-02-26T06:15:21.626Z,16.15
2023-02-26T06:18:08.652Z,14.38
2023-02-26T06:20:42.787Z,14.70
2023-02-26T06:23:29.695Z,15.50
2023-02-26T06:26:02.726Z,16.80
2023-02-26T06:28:49.657Z,16.60
2023-02-26T06:31:22.765Z,17.17
2023-02-26T06:34:09.634Z,14.50
2023-02-26T06:36:49.679Z,14.85
2023-02-26T06:39:43.635Z,13.77
2023-02-26T06:42:30.652Z,16.10
2023-02-26T06:45:03.748Z,18.15
2023-02-26T06:47:50.645Z,16.33
2023-02-26T06:50:23.759Z,17.02
2023-02-26T06:53:10.694Z,16.60
2023-02-26T06:55:48.767Z,16.30
2023-02-26T06:58:35.645Z,17.73
2023-02-26T07:01:10.777Z,15.82
2023-02-26T07:03:57.700Z,16.48
2023-02-26T07:06:37.645Z,15.48
2023-02-26T07:09:31.671Z,16.75
2023-02-26T07:12:25.651Z,15.73
2023-02-26T07:15:13.682Z,15.32
2023-02-26T07:17:46.817Z,15.35
2023-02-26T07:20:34.660Z,17.55
2023-02-26T07:23:14.707Z,16.55
2023-02-26T07:26:08.685Z,17.00
2023-02-26T07:29:02.704Z,15.32
2023-02-26T07:31:50.776Z,16.00
2023-02-26T07:34:23.802Z,14.70
2023-02-26T07:37:10.685Z,14.98
2023-02-26T07:39:50.651Z,16.38
2023-02-26T07:42:37.699Z,16.73
2023-02-26T07:45:18.668Z,16.80
2023-02-26T07:48:06.672Z,15.52
2023-02-26T07:50:39.787Z,15.77
2023-02-26T07:53:27.680Z,14.88
2023-02-26T07:56:00.778Z,15.02
2023-02-26T07:58:47.660Z,15.75
2023-02-26T08:01:20.839Z,14.85
2023-02-26T08:04:07.725Z,15.35
2023-02-26T08:06:41.795Z,15.43
2023-02-26T08:09:28.692Z,14.48
2023-02-26T08:12:01.858Z,13.38
2023-02-26T08:14:48.680Z,15.32
2023-02-26T08:17:21.793Z,13.52
2023-02-26T08:20:08.679Z,13.93
2023-02-26T08:22:48.691Z,14.43
2023-02-26T08:25:42.682Z,14.82
2023-02-26T08:28:36.694Z,14.98
2023-02-26T08:31:30.795Z,15.77
2023-02-26T08:34:17.684Z,15.73
2023-02-26T08:36:57.681Z,14.70
2023-02-26T08:39:45.692Z,15.85
2023-02-26T08:42:20.461Z,16.73
2023-02-26T08:45:07.698Z,14.55
2023-02-26T08:47:56.594Z,14.93
2023-02-26T08:50:50.669Z,14.43
2023-02-26T08:53:37.706Z,16.60
2023-02-26T08:56:17.692Z,15.63
2023-02-26T08:59:04.702Z,14.98
2023-02-26T09:01:37.831Z,14.88
2023-02-26T09:04:24.689Z,15.35
2023-02-26T09:06:57.837Z,15.15
2023-02-26T09:09:44.678Z,16.35
2023-02-26T09:12:24.740Z,16.17
2023-02-26T09:15:13.699Z,14.88
2023-02-26T09:17:48.118Z,16.42
2023-02-26T09:20:35.709Z,17.98
2023-02-26T09:23:08.809Z,16.35
2023-02-26T09:26:02.719Z,14.00
2023-02-26T09:28:42.768Z,18.33
2023-02-26T09:31:36.831Z,18.92
2023-02-26T09:34:30.699Z,16.73
2023-02-26T09:37:17.700Z,17.90
2023-02-26T09:39:54.546Z,16.92
2023-02-26T09:43:09.725Z,16.50
2023-02-26T09:45:56.713Z,16.45
2023-02-26T09:48:46.718Z,16.88
2023-02-26T09:51:27.832Z,18.58
2023-02-26T09:54:23.727Z,17.23
2023-02-26T09:56:59.823Z,17.15
2023-02-26T09:59:46.739Z,17.40
2023-02-26T10:02:33.716Z,18.00
2023-02-26T10:05:45.719Z,17.15
2023-02-26T10:08:40.734Z,16.95
2023-02-26T10:11:50.733Z,16.27
2023-02-26T10:15:03.800Z,17.10
2023-02-26T10:17:57.843Z,17.00
2023-02-26T10:21:03.739Z,16.50
2023-02-26T10:23:48.808Z,16.80
2023-02-26T10:26:54.739Z,15.80
2023-02-26T10:30:01.798Z,15.23
2023-02-26T10:33:43.739Z,15.73
2023-02-26T10:36:42.742Z,15.27
2023-02-26T10:39:49.724Z,18.05
2023-02-26T10:42:42.764Z,17.88
2023-02-26T10:45:57.470Z,16.92
2023-02-26T10:49:07.759Z,15.63
2023-02-26T10:51:47.181Z,16.15
2023-02-26T10:55:15.722Z,15.35
2023-02-26T10:57:54.896Z,16.30
2023-02-26T11:00:44.720Z,14.00
2023-02-26T11:03:31.827Z,20.10
2023-02-26T11:06:34.739Z,14.93
2023-02-26T11:09:33.747Z,15.55
2023-02-26T11:12:19.932Z,16.23
2023-02-26T11:15:07.757Z,13.57
2023-02-26T11:17:40.950Z,13.30
2023-02-26T11:20:33.742Z,15.18
2023-02-26T11:23:17.769Z,14.90
2023-02-26T11:26:29.736Z,15.65
2023-02-26T11:29:29.759Z,15.20
2023-02-26T11:32:25.845Z,15.70
2023-02-26T11:35:01.881Z,13.75
2023-02-26T11:37:54.763Z,14.27
2023-02-26T11:40:54.748Z,15.15
2023-02-26T11:43:56.759Z,12.75
2023-02-26T11:46:55.753Z,12.80
2023-02-26T11:49:35.002Z,14.57
2023-02-26T11:52:41.769Z,13.25
2023-02-26T11:55:41.760Z,12.50
2023-02-26T11:58:37.757Z,13.70
2023-02-26T12:01:25.107Z,13.82
2023-02-26T12:04:05.813Z,12.68
2023-02-26T12:06:56.783Z,14.10
2023-02-26T12:09:38.763Z,13.38
2023-02-26T12:12:51.769Z,11.70
2023-02-26T12:15:50.850Z,13.15
2023-02-26T12:18:47.743Z,13.38
2023-02-26T12:21:25.268Z,12.82
2023-02-26T12:24:40.763Z,13.32
2023-02-26T12:27:22.982Z,11.98
2023-02-26T12:30:15.775Z,11.50
2023-02-26T12:33:37.788Z,10.95
2023-02-26T12:36:24.788Z,12.07
2023-02-26T12:39:23.761Z,12.10
2023-02-26T12:42:25.861Z,13.18
2023-02-26T12:45:26.909Z,16.05
2023-02-26T12:48:51.059Z,14.70
2023-02-26T12:51:34.768Z,12.73
2023-02-26T12:55:12.787Z,13.02
2023-02-26T12:58:30.783Z,13.25
2023-02-26T13:01:33.956Z,12.85
2023-02-26T13:04:53.784Z,14.40
2023-02-26T13:07:46.810Z,13.35
2023-02-26T13:10:37.938Z,13.82
2023-02-26T13:14:05.798Z,15.63
2023-02-26T13:17:12.790Z,15.32
2023-02-26T13:20:11.796Z,15.05
2023-02-26T13:23:05.842Z,13.60
2023-02-26T13:25:51.063Z,14.30
2023-02-26T13:29:02.797Z,14.13
2023-02-26T13:31:53.044Z,13.65
2023-02-26T13:34:49.894Z,15.05
2023-02-26T13:37:45.791Z,13.40
2023-02-26T13:40:41.793Z,12.90
2023-02-26T13:43:38.797Z,13.80
2023-02-26T13:46:31.820Z,14.35
2023-02-26T13:49:42.816Z,15.77
2023-02-26T13:52:45.835Z,16.60
2023-02-26T13:55:44.808Z,14.48
2023-02-26T13:58:36.971Z,14.32
2023-02-26T14:01:41.786Z,14.75
2023-02-26T14:04:29.871Z,14.55
2023-02-26T14:07:21.805Z,14.43
2023-02-26T14:10:14.812Z,13.50
2023-02-26T14:13:46.834Z,15.45
2023-02-26T14:16:43.848Z,16.65
2023-02-26T14:19:56.837Z,15.13
2023-02-26T14:22:49.795Z,14.35
2023-02-26T14:25:46.802Z,14.73
2023-02-26T14:28:40.814Z,13.63
2023-02-26T14:31:36.883Z,14.40
2023-02-26T14:34:29.808Z,14.27
2023-02-26T14:37:13.819Z,15.10
2023-02-26T14:40:22.796Z,12.98
2023-02-26T14:43:10.786Z,13.77
2023-02-26T14:45:52.862Z,13.25
2023-02-26T14:48:36.805Z,13.23
2023-02-26T14:51:29.335Z,14.55
2023-02-26T14:54:45.812Z,13.50
2023-02-26T14:57:58.847Z,13.38
2023-02-26T15:01:21.880Z,14.35
2023-02-26T15:04:37.808Z,12.95
2023-02-26T15:07:43.830Z,14.10
2023-02-26T15:11:29.102Z,13.38
2023-02-26T15:14:52.813Z,13.63
2023-02-26T15:18:07.829Z,15.40
2023-02-26T15:21:12.820Z,15.25
2023-02-26T15:23:51.932Z,14.60
2023-02-26T15:26:43.833Z,15.68
2023-02-26T15:29:20.992Z,14.93
2023-02-26T15:32:32.892Z,14.05
2023-02-26T15:35:34.875Z,13.45
2023-02-26T15:38:28.827Z,14.35
2023-02-26T15:41:15.903Z,13.45
2023-02-26T15:44:08.137Z,13.40
2023-02-26T15:47:02.858Z,12.73
2023-02-26T15:49:55.884Z,12.90
2023-02-26T15:52:49.859Z,14.50
2023-02-26T15:55:47.858Z,12.27
2023-02-26T15:58:36.855Z,13.18
2023-02-26T16:01:34.039Z,14.13
2023-02-26T16:04:24.902Z,12.25
2023-02-26T16:07:10.842Z,12.60
2023-02-26T16:10:00.893Z,12.68
2023-02-26T16:12:55.829Z,9.98
2023-02-26T16:15:52.914Z,11.55
2023-02-26T16:18:47.847Z,11.35
2023-02-26T16:21:47.856Z,12.82
2023-02-26T16:24:35.880Z,13.38
2023-02-26T16:27:13.974Z,14.38
2023-02-26T16:30:04.848Z,13.38
2023-02-26T16:32:42.019Z,13.63
2023-02-26T16:35:30.894Z,12.63
2023-02-26T16:38:10.852Z,12.52
2023-02-26T16:41:14.844Z,11.75
2023-02-26T16:43:54.458Z,12.18
2023-02-26T16:46:43.913Z,11.40
2023-02-26T16:49:29.981Z,12.27
2023-02-26T16:52:23.898Z,12.50
2023-02-26T16:55:14.844Z,13.32
2023-02-26T16:58:10.848Z,11.70
2023-02-26T17:01:08.894Z,10.77
2023-02-26T17:04:06.891Z,12.55
2023-02-26T17:06:52.878Z,11.98
2023-02-26T17:09:51.902Z,12.52
2023-02-26T17:12:57.880Z,13.40
2023-02-26T17:15:52.936Z,13.52
2023-02-26T17:18:46.860Z,13.50
2023-02-26T17:21:36.166Z,13.25
2023-02-26T17:24:09.963Z,15.95
2023-02-26T17:26:57.910Z,13.07
2023-02-26T17:29:38.994Z,13.15
2023-02-26T17:32:28.972Z,14.75
2023-02-26T17:35:03.133Z,14.88
2023-02-26T17:37:53.875Z,14.23
2023-02-26T17:40:39.454Z,15.35
2023-02-26T17:43:25.858Z,14.02
2023-02-26T17:45:59.092Z,14.88
2023-02-26T17:48:45.872Z,13.50
2023-02-26T17:51:26.331Z,14.57
2023-02-26T17:54:12.886Z,14.20
2023-02-26T17:56:52.920Z,13.20
2023-02-26T17:59:47.881Z,12.65
2023-02-26T18:02:34.867Z,15.38
2023-02-26T18:05:14.887Z,12.88
2023-02-26T18:08:01.887Z,13.05
2023-02-26T18:10:35.077Z,12.90
2023-02-26T18:13:21.908Z,12.63
2023-02-26T18:15:58.264Z,12.98
2023-02-26T18:18:44.896Z,14.38
2023-02-26T18:21:20.314Z,12.95
2023-02-26T18:24:07.871Z,13.02
2023-02-26T18:26:41.027Z,13.02
2023-02-26T18:29:34.893Z,14.68
2023-02-26T18:32:31.982Z,12.52
2023-02-26T18:35:18.891Z,13.55
2023-02-26T18:37:53.030Z,13.00
2023-02-26T18:40:39.902Z,13.13
2023-02-26T18:43:13.230Z,12.82
2023-02-26T18:49:09.020Z,12.15
2023-02-26T18:51:55.920Z,13.93
2023-02-26T18:54:35.883Z,13.73
2023-02-26T18:57:29.906Z,12.07
2023-02-26T19:00:20.949Z,16.05
2023-02-26T19:03:00.939Z,15.07
2023-02-26T19:05:47.908Z,14.10
2023-02-26T19:08:27.908Z,15.07
2023-02-26T19:11:21.901Z,12.73
2023-02-26T19:14:17.908Z,14.73
2023-02-26T19:17:04.920Z,16.45
2023-02-26T19:19:46.912Z,17.00
2023-02-26T19:22:40.896Z,15.80
2023-02-26T19:25:30.965Z,16.60
2023-02-26T19:28:04.027Z,15.40
2023-02-26T19:30:50.976Z,15.50
2023-02-26T19:33:30.934Z,16.13
2023-02-26T19:36:27.943Z,14.10
2023-02-26T19:39:21.918Z,16.40
2023-02-26T19:42:15.901Z,14.35
2023-02-26T19:45:09.927Z,14.13
2023-02-26T19:48:03.912Z,14.63
2023-02-26T19:50:50.938Z,15.38
2023-02-26T19:53:24.032Z,14.57
2023-02-26T19:56:11.915Z,14.35
2023-02-26T19:58:45.031Z,15.10
2023-02-26T20:01:32.188Z,15.35
2023-02-26T20:04:12.934Z,15.18
2023-02-26T20:06:59.921Z,14.90
2023-02-26T20:09:33.302Z,15.82
2023-02-26T20:15:20.898Z,15.20
2023-02-26T20:18:07.923Z,15.45
2023-02-26T20:20:41.482Z,15.77
2023-02-26T20:23:29.033Z,16.27
2023-02-26T20:26:04.332Z,17.50
2023-02-26T20:28:57.956Z,15.82
2023-02-26T20:31:47.177Z,15.20
2023-02-26T20:34:21.168Z,16.55
2023-02-26T20:37:07.952Z,16.65
2023-02-26T20:39:47.954Z,17.02
2023-02-26T20:42:41.950Z,17.63
2023-02-26T20:45:28.922Z,17.45
2023-02-26T20:48:03.036Z,17.52
2023-02-26T20:50:49.941Z,16.30
2023-02-26T20:53:23.059Z,15.35
2023-02-26T20:56:09.950Z,18.15
2023-02-26T20:58:49.942Z,18.38
2023-02-26T21:01:43.986Z,17.65
2023-02-26T21:04:30.967Z,18.20
2023-02-26T21:07:17.612Z,18.30
2023-02-26T21:10:03.930Z,18.13
2023-02-26T21:12:43.930Z,16.52
2023-02-26T21:15:37.939Z,16.42
2023-02-26T21:18:24.934Z,18.60
2023-02-26T21:20:58.126Z,17.20
2023-02-26T21:23:44.968Z,17.10
2023-02-26T21:26:24.927Z,17.63
2023-02-26T21:29:18.956Z,17.38
2023-02-26T21:32:10.003Z,15.38
2023-02-26T21:34:49.946Z,16.90
2023-02-26T21:37:43.986Z,18.77
2023-02-26T21:40:32.282Z,17.60
2023-02-26T21:43:05.091Z,17.77
2023-02-26T21:45:55.038Z,17.00
2023-02-26T21:48:29.296Z,18.27
2023-02-26T21:51:15.959Z,17.25
2023-02-26T21:53:49.778Z,17.90
2023-02-26T21:56:36.947Z,17.50
2023-02-26T21:59:10.023Z,18.15
2023-02-26T22:01:57.993Z,17.27
2023-02-26T22:04:38.034Z,17.92
2023-02-26T22:07:31.989Z,16.58
2023-02-26T22:10:19.974Z,17.45
2023-02-26T22:12:53.068Z,16.45
2023-02-26T22:15:40.005Z,17.10
2023-02-26T22:18:19.960Z,16.80
2023-02-26T22:21:13.950Z,17.05
2023-02-26T22:24:01.063Z,16.45
2023-02-26T22:26:34.134Z,17.17
2023-02-26T22:29:27.966Z,17.63
2023-02-26T22:32:14.995Z,17.17
2023-02-26T22:34:48.136Z,16.08
2023-02-26T22:37:34.960Z,16.40
2023-02-26T22:40:15.001Z,17.23
2023-02-26T22:43:02.050Z,18.48
2023-02-26T22:45:41.988Z,17.50
2023-02-26T22:48:35.980Z,16.08
2023-02-26T22:51:23.137Z,14.77
2023-02-26T22:53:57.164Z,14.48
2023-02-26T22:56:43.960Z,16.13
2023-02-26T22:59:24.051Z,15.18
2023-02-26T23:02:10.963Z,15.57
2023-02-26T23:04:51.059Z,16.30
2023-02-26T23:07:44.988Z,16.48
2023-02-26T23:10:31.983Z,15.18
2023-02-26T23:13:05.610Z,15.95
2023-02-26T23:15:53.322Z,16.45
2023-02-26T23:18:27.172Z,15.85
2023-02-26T23:21:15.202Z,15.40
2023-02-26T23:23:54.981Z,16.20
2023-02-26T23:26:49.039Z,14.93
2023-02-26T23:29:35.978Z,15.32
2023-02-26T23:32:16.100Z,15.32
2023-02-26T23:35:03.054Z,15.05
2023-02-26T23:37:36.358Z,14.90
2023-02-26T23:40:23.027Z,14.68
2023-02-26T23:42:56.284Z,14.60
2023-02-26T23:45:44.080Z,14.95
2023-02-26T23:48:23.994Z,13.40
2023-02-26T23:51:17.993Z,15.45
2023-02-26T23:54:11.997Z,15.38
2023-02-26T23:57:06.061Z,15.65
2023-02-26T23:59:52.984Z,15.25
